Time;durP1;ratioP1;P1;durP2;ratioP2;P2;SDS_P1;SDS_P2;PMS_P1;PMS_P2;Temp;Humidity;BMP_temperature;BMP_pressure;BME280_temperature;BME280_humidity;BME280_pressure;Samples;Min_cycle;Max_cycle;Signal;HPM_P1;HPM_P2
2022/04/20 00:00:44;;;;;;;6.28;2.60;;;;;;;7.46;69.93;100882.34;2063987;28;20305;-62
2022/04/20 00:01:46;;;;;;;4.85;2.55;;;;;;;7.42;70.22;100881.22;2072413;28;20293;-63
2022/04/20 00:02:49;;;;;;;6.22;2.50;;;;;;;7.42;70.26;100873.19;2064227;28;20290;-64
2022/04/20 00:03:57;;;;;;;5.13;2.50;;;;;;;7.48;70.50;100874.88;2072343;28;20288;-64
2022/04/20 00:05:05;;;;;;;6.95;2.50;;;;;;;7.48;70.58;100868.72;2072289;28;20311;-62
2022/04/20 00:06:10;;;;;;;10.02;2.60;;;;;;;7.52;70.41;100873.31;2065855;28;20657;-62
2022/04/20 00:07:14;;;;;;;7.75;2.50;;;;;;;7.51;69.89;100877.06;2056379;28;20309;-63
2022/04/20 00:08:20;;;;;;;5.18;2.40;;;;;;;7.36;70.12;100903.63;2064916;28;20285;-62
2022/04/20 00:09:23;;;;;;;5.78;2.55;;;;;;;7.22;70.78;100908.53;2073305;28;20295;-62
2022/04/20 00:10:34;;;;;;;6.07;2.67;;;;;;;7.13;71.52;100905.47;2072180;28;20285;-63
2022/04/20 00:11:36;;;;;;;4.40;2.38;;;;;;;7.13;71.79;100902.78;2072145;28;20304;-62
2022/04/20 00:12:41;;;;;;;7.60;2.75;;;;;;;7.09;72.47;100900.84;2073413;28;20297;-62
2022/04/20 00:13:44;;;;;;;4.97;2.40;;;;;;;7.03;72.66;100902.66;2072304;28;20304;-62
2022/04/20 00:14:49;;;;;;;5.88;2.60;;;;;;;7.05;72.40;100899.72;2072462;28;20291;-63
2022/04/20 00:15:54;;;;;;;5.13;2.50;;;;;;;7.07;72.19;100906.44;2073214;28;20288;-62
2022/04/20 00:17:00;;;;;;;6.30;2.78;;;;;;;7.01;72.75;100904.75;2072794;28;20296;-63
2022/04/20 00:18:05;;;;;;;6.00;2.35;;;;;;;6.88;73.58;100907.78;2072400;28;20289;-63
2022/04/20 00:19:10;;;;;;;9.77;2.92;;;;;;;6.93;74.00;100899.81;2064133;28;20293;-63
2022/04/20 00:20:17;;;;;;;6.47;2.72;;;;;;;6.98;73.88;100905.25;2065301;28;20320;-63
2022/04/20 00:21:20;;;;;;;7.05;2.50;;;;;;;7.04;73.86;100901.59;2072896;28;20292;-62
2022/04/20 00:22:23;;;;;;;8.18;2.70;;;;;;;7.03;74.10;100909.84;2066886;28;20749;-63
2022/04/20 00:23:25;;;;;;;5.90;2.83;;;;;;;6.99;73.89;100906.88;2074257;28;20300;-62
2022/04/20 00:24:30;;;;;;;6.90;2.83;;;;;;;7.00;73.99;100905.00;2074084;28;20295;-63
2022/04/20 00:25:35;;;;;;;4.75;2.50;;;;;;;7.10;73.66;100907.84;2074009;28;20412;-63
2022/04/20 00:26:39;;;;;;;10.98;2.70;;;;;;;7.12;73.79;100900.34;2074042;28;20296;-61
2022/04/20 00:27:42;;;;;;;7.00;2.42;;;;;;;7.13;73.77;100899.31;2065925;28;20286;-63
2022/04/20 00:28:47;;;;;;;6.07;2.80;;;;;;;7.10;73.81;100897.94;2065456;28;20794;-62
2022/04/20 00:29:50;;;;;;;6.88;2.78;;;;;;;7.04;74.08;100920.31;2063068;28;20749;-62
2022/04/20 00:30:54;;;;;;;7.07;2.83;;;;;;;6.85;74.06;100908.28;2073920;28;20669;-62
2022/04/20 00:31:59;;;;;;;8.75;2.60;;;;;;;6.91;74.51;100918.00;2072937;28;20728;-63
2022/04/20 00:33:03;;;;;;;8.63;2.60;;;;;;;6.93;74.55;100905.16;2074174;28;20304;-63
2022/04/20 00:34:04;;;;;;;7.70;2.75;;;;;;;7.01;74.26;100907.44;2063997;28;20297;-63
2022/04/20 00:35:13;;;;;;;5.05;2.53;;;;;;;7.06;74.45;100904.00;2071162;28;20304;-63
2022/04/20 00:36:18;;;;;;;8.05;2.78;;;;;;;7.07;74.31;100911.81;2071810;28;20798;-62
2022/04/20 00:37:20;;;;;;;5.70;2.50;;;;;;;7.10;74.25;100903.28;2071423;28;20293;-62
2022/04/20 00:38:26;;;;;;;6.88;2.55;;;;;;;7.16;74.44;100904.97;2071615;28;20296;-62
2022/04/20 00:39:33;;;;;;;4.63;2.22;;;;;;;7.19;74.13;100907.16;2071867;28;20285;-61
2022/04/20 00:40:36;;;;;;;6.72;2.38;;;;;;;7.26;73.99;100898.16;2072299;28;20066;-61
2022/04/20 00:41:44;;;;;;;6.53;2.55;;;;;;;7.32;74.08;100899.84;2069821;28;20713;-62
2022/04/20 00:42:49;;;;;;;9.55;2.38;;;;;;;7.40;74.27;100899.38;2063277;28;20297;-63
2022/04/20 00:43:53;;;;;;;5.22;2.28;;;;;;;7.37;73.94;100905.22;2064516;28;20285;-62
2022/04/20 00:44:55;;;;;;;7.93;2.70;;;;;;;7.38;73.68;100901.50;2071536;28;20392;-63
2022/04/20 00:45:59;;;;;;;6.15;2.78;;;;;;;7.27;73.34;100895.22;2063715;28;20285;-63
2022/04/20 00:47:02;;;;;;;4.75;2.40;;;;;;;7.32;73.56;100894.47;2071702;28;20280;-63
2022/04/20 00:48:08;;;;;;;7.53;2.28;;;;;;;7.27;73.87;100889.06;2070898;28;20293;-62
2022/04/20 00:49:14;;;;;;;5.85;2.65;;;;;;;7.22;74.02;100886.31;2070426;28;20293;-62
2022/04/20 00:50:17;;;;;;;5.10;2.22;;;;;;;7.24;74.33;100900.25;2070671;28;20749;-63
2022/04/20 00:51:19;;;;;;;8.07;2.40;;;;;;;7.23;73.89;100898.63;2079948;28;20276;-63
2022/04/20 00:52:22;;;;;;;4.50;2.30;;;;;;;7.14;74.06;100896.38;2065280;28;20670;-63
2022/04/20 00:53:27;;;;;;;5.80;2.35;;;;;;;7.12;74.76;100887.78;2062993;28;20379;-62
2022/04/20 00:54:31;;;;;;;4.57;2.45;;;;;;;7.14;74.44;100885.69;2056348;28;20603;-63
2022/04/20 00:55:34;;;;;;;8.43;2.30;;;;;;;7.14;74.65;100883.00;2055300;28;20297;-62
2022/04/20 00:56:39;;;;;;;5.35;2.38;;;;;;;7.13;74.47;100889.44;2064894;28;20312;-62
2022/04/20 00:57:44;;;;;;;6.97;2.90;;;;;;;7.13;75.15;100884.06;2063545;28;20305;-63
2022/04/20 00:58:48;;;;;;;8.30;2.63;;;;;;;7.19;74.55;100884.97;2056969;28;20341;-62
2022/04/20 00:59:53;;;;;;;8.00;2.70;;;;;;;7.23;74.90;100882.59;2063605;28;20383;-62
2022/04/20 01:00:55;;;;;;;8.20;2.45;;;;;;;7.26;74.48;100868.72;2063743;28;20360;-63
2022/04/20 01:02:01;;;;;;;14.32;2.72;;;;;;;7.30;74.77;100872.50;2064898;28;21016;-62
2022/04/20 01:03:06;;;;;;;5.82;2.70;;;;;;;7.28;74.71;100875.44;2065542;28;20288;-62
2022/04/20 01:04:30;;;;;;;5.40;2.13;;;;;;;7.21;74.71;100864.09;2076462;28;20280;-63
2022/04/20 01:05:49;;;;;;;7.43;2.50;;;;;;;7.29;74.65;100863.69;2064589;28;20298;-62
2022/04/20 01:07:00;;;;;;;9.80;2.47;;;;;;;7.33;74.86;100867.47;2069111;28;20304;-63
2022/04/20 01:08:35;;;;;;;7.68;2.92;;;;;;;7.11;74.69;100875.47;2033276;29;20288;-63
2022/04/20 01:09:58;;;;;;;8.55;2.40;;;;;;;6.99;75.13;100869.44;2045067;28;20357;-62
2022/04/20 01:11:26;;;;;;;5.70;2.55;;;;;;;6.93;75.76;100857.06;2071712;28;20818;-62
2022/04/20 01:12:45;;;;;;;;;;;;;;;6.98;76.26;100851.78;2068154;28;20789;-63
2022/04/20 01:14:16;;;;;;;6.40;2.50;;;;;;;7.01;75.95;100847.81;2059712;28;20283;-62
2022/04/20 01:15:24;;;;;;;7.32;2.55;;;;;;;6.99;76.09;100841.91;2074041;28;20649;-62
2022/04/20 01:16:47;;;;;;;6.10;2.35;;;;;;;6.95;76.47;100838.91;2073289;28;20304;-63
2022/04/20 01:18:16;;;;;;;5.90;2.47;;;;;;;7.13;76.69;100830.59;2071372;28;20864;-62
2022/04/20 01:19:40;;;;;;;4.82;2.55;;;;;;;7.08;76.19;100833.19;2055547;28;20301;-62
2022/04/20 01:21:01;;;;;;;6.00;3.00;;;;;;;7.09;76.48;100828.66;2065149;28;20289;-62
2022/04/20 01:22:26;;;;;;;7.25;3.03;;;;;;;7.05;76.34;100828.34;2058565;28;20542;-62
2022/04/20 01:24:00;;;;;;;11.30;2.50;;;;;;;6.93;76.03;100827.66;2064911;28;20285;-62
2022/04/20 01:25:20;;;;;;;6.70;2.40;;;;;;;6.97;76.34;100821.56;2075275;28;20288;-62
2022/04/20 01:26:46;;;;;;;6.68;3.20;;;;;;;6.78;76.99;100825.59;2065508;28;20776;-62
2022/04/20 01:28:05;;;;;;;6.32;3.40;;;;;;;6.81;76.72;100827.78;2059379;28;20282;-62
2022/04/20 01:29:34;;;;;;;6.57;2.65;;;;;;;6.88;76.78;100822.25;2068706;28;20321;-61
2022/04/20 01:31:01;;;;;;;8.52;2.90;;;;;;;6.92;77.08;100826.03;2073063;28;20304;-63
2022/04/20 01:32:18;;;;;;;6.50;2.65;;;;;;;7.03;77.04;100826.97;2074081;28;20272;-63
2022/04/20 01:33:44;;;;;;;7.78;2.90;;;;;;;7.13;76.68;100822.56;2073518;28;20289;-64
2022/04/20 01:34:48;;;;;;;6.32;3.17;;;;;;;7.20;76.19;100825.88;2072763;28;20287;-64
2022/04/20 01:35:53;;;;;;;5.43;2.75;;;;;;;7.29;76.64;100822.75;2067036;28;20999;-64
2022/04/20 01:36:54;;;;;;;5.20;3.00;;;;;;;7.35;75.88;100819.91;2072968;28;20296;-63
2022/04/20 01:38:01;;;;;;;6.43;3.13;;;;;;;7.42;75.58;100817.03;2082114;28;20303;-63
2022/04/20 01:39:04;;;;;;;7.18;2.80;;;;;;;7.46;75.21;100820.81;2081578;28;20287;-63
2022/04/20 01:40:07;;;;;;;6.80;2.83;;;;;;;7.44;75.05;100814.91;2080916;28;20652;-63
2022/04/20 01:41:09;;;;;;;8.32;2.90;;;;;;;7.44;74.94;100822.94;2073562;28;20280;-63
2022/04/20 01:42:12;;;;;;;10.00;2.90;;;;;;;7.42;75.19;100823.19;2065580;28;20346;-63
2022/04/20 01:43:20;;;;;;;4.57;2.63;;;;;;;7.41;75.14;100820.75;2059571;28;20788;-64
2022/04/20 01:44:38;;;;;;;8.07;2.67;;;;;;;7.39;74.98;100822.88;2070734;28;20288;-63
2022/04/20 01:46:01;;;;;;;9.30;2.90;;;;;;;7.27;74.95;100824.88;2068250;28;20834;-63
2022/04/20 01:47:35;;;;;;;8.40;2.92;;;;;;;7.15;75.64;100833.81;2053430;28;20302;-64
2022/04/20 01:49:04;;;;;;;6.90;3.00;;;;;;;7.11;75.45;100827.34;2073139;28;20712;-63
2022/04/20 01:50:28;;;;;;;7.78;3.00;;;;;;;7.10;75.48;100830.28;2073225;28;20276;-63
2022/04/20 01:51:46;;;;;;;9.98;3.00;;;;;;;7.08;75.85;100832.41;2073274;28;20892;-63
2022/04/20 01:53:18;;;;;;;9.85;3.00;;;;;;;6.99;75.76;100828.53;2073307;28;20762;-63
2022/04/20 01:54:32;;;;;;;12.90;3.17;;;;;;;6.96;76.28;100825.28;2073028;28;20281;-63
2022/04/20 01:56:00;;;;;;;9.20;3.58;;;;;;;6.91;76.51;100825.25;2073464;28;20292;-63
2022/04/20 01:57:31;;;;;;;7.63;2.88;;;;;;;6.91;76.34;100816.41;2073377;28;20288;-63
2022/04/20 01:58:55;;;;;;;7.63;2.78;;;;;;;6.84;76.43;100816.59;2073458;28;20285;-63
2022/04/20 02:00:30;;;;;;;8.27;2.90;;;;;;;6.85;76.99;100815.53;2065362;28;20293;-63
2022/04/20 02:03:18;;;;;;;5.63;3.38;;;;;;;6.90;76.96;100809.44;2074331;28;20284;-62
2022/04/20 02:04:29;;;;;;;5.70;2.70;;;;;;;6.98;76.90;100806.34;2065237;28;20289;-63
2022/04/20 02:05:31;;;;;;;8.13;3.15;;;;;;;6.97;76.81;100807.41;2066571;28;20296;-62
2022/04/20 02:06:54;;;;;;;8.88;3.20;;;;;;;6.92;76.60;100807.34;2068423;28;20775;-62
2022/04/20 02:08:03;;;;;;;8.75;3.50;;;;;;;6.91;76.87;100811.06;2076985;28;20667;-63
2022/04/20 02:09:24;;;;;;;5.70;3.08;;;;;;;6.95;76.83;100801.50;2065219;28;20296;-62
2022/04/20 02:10:41;;;;;;;9.77;2.95;;;;;;;6.90;76.86;100804.91;2059061;28;20345;-62
2022/04/20 02:11:46;;;;;;;9.35;3.38;;;;;;;6.97;77.02;100796.72;2062660;28;20788;-62
2022/04/20 02:12:59;;;;;;;7.70;2.95;;;;;;;7.00;76.52;100793.53;2067942;28;20289;-62
2022/04/20 02:14:13;;;;;;;10.85;3.70;;;;;;;6.99;76.85;100791.91;2072718;28;20929;-62
2022/04/20 02:15:17;;;;;;;7.88;2.95;;;;;;;6.97;76.79;100794.03;2073195;28;20288;-63
2022/04/20 02:16:45;;;;;;;6.50;2.95;;;;;;;7.01;76.89;100805.84;2075497;28;20296;-62
2022/04/20 02:18:06;;;;;;;8.70;3.80;;;;;;;7.05;76.94;100798.94;2064887;28;20296;-62
2022/04/20 02:19:25;;;;;;;6.57;3.05;;;;;;;7.01;76.98;100799.69;2072545;28;20284;-62
2022/04/20 02:20:37;;;;;;;9.13;3.30;;;;;;;7.01;76.49;100795.16;2064958;28;20293;-63
2022/04/20 02:21:43;;;;;;;8.00;3.20;;;;;;;7.06;76.59;100792.56;2065058;28;20046;-62
2022/04/20 02:22:47;;;;;;;8.73;3.33;;;;;;;7.04;76.75;100794.66;2072169;28;20672;-62
2022/04/20 02:23:49;;;;;;;7.82;3.28;;;;;;;6.96;76.57;100789.72;2057524;28;20290;-63
2022/04/20 02:24:59;;;;;;;6.10;3.40;;;;;;;7.02;77.01;100786.06;2060145;28;20290;-62
2022/04/20 02:26:00;;;;;;;8.63;3.45;;;;;;;7.07;76.91;100786.13;2057523;28;20302;-62
2022/04/20 02:27:03;;;;;;;6.43;3.33;;;;;;;7.08;76.63;100790.41;2049398;28;20299;-62
2022/04/20 02:28:09;;;;;;;10.93;3.08;;;;;;;7.11;76.60;100795.28;2065074;28;20293;-62
2022/04/20 02:29:14;;;;;;;7.80;3.33;;;;;;;7.05;76.39;100788.25;2064746;28;20293;-62
2022/04/20 02:30:17;;;;;;;8.73;3.28;;;;;;;7.04;76.59;100789.31;2067339;28;20789;-62
2022/04/20 02:31:20;;;;;;;9.93;3.05;;;;;;;7.07;76.94;100786.13;2073527;28;20281;-62
2022/04/20 02:32:22;;;;;;;7.60;3.17;;;;;;;7.08;76.73;100782.41;2073447;28;20752;-62
2022/04/20 02:33:30;;;;;;;8.98;3.05;;;;;;;7.06;76.57;100781.84;2073841;28;20768;-62
2022/04/20 02:34:32;;;;;;;10.98;3.38;;;;;;;7.01;76.65;100780.97;2081403;28;20296;-62
2022/04/20 02:35:36;;;;;;;9.40;3.08;;;;;;;7.01;76.62;100789.00;2072916;28;20291;-62
2022/04/20 02:36:43;;;;;;;9.57;2.95;;;;;;;6.99;76.69;100797.25;2075231;28;20288;-61
2022/04/20 02:37:45;;;;;;;9.68;3.65;;;;;;;6.85;77.11;100796.03;2080245;28;20295;-61
2022/04/20 02:38:51;;;;;;;8.55;3.40;;;;;;;6.90;77.27;100793.41;2080644;28;20303;-62
2022/04/20 02:39:56;;;;;;;6.85;3.20;;;;;;;6.89;77.52;100799.81;2088540;28;20295;-62
2022/04/20 02:40:57;;;;;;;5.57;3.05;;;;;;;6.91;77.21;100803.84;2081236;28;20307;-63
2022/04/20 02:42:05;;;;;;;8.73;2.75;;;;;;;6.94;77.40;100806.03;2073500;28;20281;-62
2022/04/20 02:43:12;;;;;;;8.52;3.10;;;;;;;6.97;77.08;100799.38;2074116;28;20296;-62
2022/04/20 02:44:17;;;;;;;9.43;3.10;;;;;;;7.00;77.23;100795.38;2073657;28;20295;-63
2022/04/20 02:45:20;;;;;;;8.18;3.10;;;;;;;7.05;77.40;100798.94;2079647;28;20292;-62
2022/04/20 02:46:23;;;;;;;6.90;3.15;;;;;;;7.03;77.24;100793.06;2064998;28;20305;-63
2022/04/20 02:47:27;;;;;;;5.57;3.10;;;;;;;7.00;76.92;100788.19;2056800;28;20294;-62
2022/04/20 02:48:29;;;;;;;6.90;2.92;;;;;;;7.05;76.90;100790.91;2073422;28;20331;-64
2022/04/20 02:49:36;;;;;;;8.52;3.33;;;;;;;7.06;77.05;100784.53;2080686;28;20288;-63
2022/04/20 02:50:38;;;;;;;8.73;3.58;;;;;;;7.04;76.91;100783.97;2073592;28;20273;-62
2022/04/20 02:51:42;;;;;;;9.40;3.30;;;;;;;6.98;76.84;100790.31;2080564;28;20294;-62
2022/04/20 02:52:49;;;;;;;9.23;3.35;;;;;;;6.88;77.00;100795.53;2064902;28;20737;-64
2022/04/20 02:53:53;;;;;;;10.85;3.83;;;;;;;6.90;77.48;100782.69;2059311;28;20298;-63
2022/04/20 02:54:56;;;;;;;10.35;3.53;;;;;;;6.95;77.52;100793.47;2072591;28;20292;-63
2022/04/20 02:55:58;;;;;;;11.05;3.50;;;;;;;6.99;77.23;100785.75;2080804;28;20819;-63
2022/04/20 02:57:02;;;;;;;7.00;3.15;;;;;;;6.99;77.63;100786.56;2081095;28;20295;-63
2022/04/20 02:58:05;;;;;;;7.18;3.10;;;;;;;6.98;77.29;100779.59;2081043;28;20292;-62
2022/04/20 02:59:10;;;;;;;10.10;3.22;;;;;;;6.94;77.38;100783.84;2072781;28;20288;-62
2022/04/20 03:00:16;;;;;;;9.68;3.22;;;;;;;6.94;77.30;100767.81;2066328;28;20304;-63
2022/04/20 03:01:28;;;;;;;8.82;3.95;;;;;;;6.94;77.17;100770.47;2074021;28;20301;-63
2022/04/20 03:02:34;;;;;;;9.15;3.38;;;;;;;6.86;77.72;100766.34;2072425;28;20831;-62
2022/04/20 03:03:42;;;;;;;9.95;3.65;;;;;;;6.86;77.21;100771.69;2067195;28;20308;-62
2022/04/20 03:05:09;;;;;;;12.05;3.85;;;;;;;6.89;77.86;100775.75;2069196;28;20301;-62
2022/04/20 03:06:11;;;;;;;10.50;3.50;;;;;;;6.91;77.53;100768.31;2068035;28;20292;-63
2022/04/20 03:07:14;;;;;;;7.38;2.97;;;;;;;6.85;78.16;100761.28;2072751;28;20296;-63
2022/04/20 03:08:34;;;;;;;6.60;2.95;;;;;;;6.78;78.28;100757.97;2067203;28;20289;-63
2022/04/20 03:09:38;;;;;;;6.50;2.90;;;;;;;6.75;78.13;100761.97;2064820;28;20293;-63
2022/04/20 03:10:42;;;;;;;12.23;3.20;;;;;;;6.80;78.56;100767.34;2062710;28;20318;-63
2022/04/20 03:12:08;;;;;;;6.90;2.78;;;;;;;6.85;78.07;100766.63;2067489;28;20296;-63
2022/04/20 03:13:13;;;;;;;9.57;2.88;;;;;;;6.85;78.36;100763.94;2079855;28;20284;-63
2022/04/20 03:14:18;;;;;;;7.85;2.70;;;;;;;6.94;78.14;100762.47;2072321;28;20157;-63
2022/04/20 03:15:20;;;;;;;7.50;3.50;;;;;;;6.94;77.66;100759.78;2072661;28;20288;-63
2022/04/20 03:16:24;;;;;;;8.18;2.83;;;;;;;7.00;78.02;100761.47;2057229;28;20286;-63
2022/04/20 03:17:27;;;;;;;5.32;2.47;;;;;;;7.03;78.14;100750.28;2065273;28;20289;-63
2022/04/20 03:18:34;;;;;;;7.43;2.85;;;;;;;7.08;77.81;100746.84;2072701;28;20627;-63
2022/04/20 03:19:45;;;;;;;5.18;2.50;;;;;;;7.11;77.26;100763.19;2072734;28;20285;-63
2022/04/20 03:20:49;;;;;;;5.38;2.67;;;;;;;7.10;77.28;100752.75;2056471;28;20813;-62
2022/04/20 03:21:52;;;;;;;4.78;2.33;;;;;;;7.09;77.17;100764.47;2057539;28;20301;-62
2022/04/20 03:23:00;;;;;;;5.13;2.40;;;;;;;6.94;77.17;100757.13;2073364;28;20281;-63
2022/04/20 03:24:10;;;;;;;6.68;2.60;;;;;;;6.89;77.28;100760.50;2056168;28;20801;-62
2022/04/20 03:25:36;;;;;;;7.22;2.63;;;;;;;6.88;77.95;100758.91;2069391;28;20339;-63
2022/04/20 03:27:01;;;;;;;6.85;2.35;;;;;;;6.86;77.96;100754.88;2055190;28;20763;-63
2022/04/20 03:28:19;;;;;;;7.75;2.85;;;;;;;6.84;78.09;100756.97;2080819;28;20287;-63
2022/04/20 03:29:24;;;;;;;8.23;3.13;;;;;;;6.84;78.08;100759.63;2072374;28;20273;-64
2022/04/20 03:30:27;;;;;;;6.32;2.50;;;;;;;6.79;78.22;100764.94;2056856;28;20286;-63
2022/04/20 03:31:37;;;;;;;6.57;2.58;;;;;;;6.77;78.03;100759.03;2057156;28;20286;-63
2022/04/20 03:32:42;;;;;;;9.25;2.83;;;;;;;6.74;77.90;100760.31;2066098;28;20282;-63
2022/04/20 03:33:49;;;;;;;6.07;2.90;;;;;;;6.67;78.27;100757.03;2073091;28;20753;-63
2022/04/20 03:34:51;;;;;;;8.88;2.55;;;;;;;6.66;78.74;100760.78;2071919;28;20645;-63
2022/04/20 03:35:54;;;;;;;7.53;2.63;;;;;;;6.71;78.76;100763.50;2072185;28;20285;-63
2022/04/20 03:36:58;;;;;;;5.82;2.60;;;;;;;6.74;79.33;100758.44;2072104;28;20602;-62
2022/04/20 03:38:00;;;;;;;7.68;2.83;;;;;;;6.86;78.79;100760.22;2072639;28;20720;-62
2022/04/20 03:39:05;;;;;;;5.88;2.45;;;;;;;6.83;78.34;100758.84;2072126;28;20289;-63
2022/04/20 03:40:11;;;;;;;8.70;2.60;;;;;;;6.79;78.54;100773.75;2057305;28;20286;-63
2022/04/20 03:41:14;;;;;;;6.45;2.45;;;;;;;6.80;78.64;100772.69;2064806;28;20290;-63
2022/04/20 03:42:16;;;;;;;6.18;2.78;;;;;;;6.87;78.29;100773.34;2064598;28;20296;-63
2022/04/20 03:43:20;;;;;;;8.48;3.00;;;;;;;6.87;78.26;100773.34;2071685;28;20303;-62
2022/04/20 03:44:21;;;;;;;7.55;2.80;;;;;;;6.79;78.00;100773.75;2072552;28;20285;-62
2022/04/20 03:45:27;;;;;;;6.63;2.80;;;;;;;6.73;78.05;100772.88;2064331;28;20304;-62
2022/04/20 03:46:29;;;;;;;6.70;2.65;;;;;;;6.77;78.71;100777.72;2064908;28;20296;-62
2022/04/20 03:47:35;;;;;;;8.45;2.78;;;;;;;6.77;78.72;100775.06;2071778;28;20292;-62
2022/04/20 03:48:37;;;;;;;6.80;2.80;;;;;;;6.84;78.47;100775.69;2064353;28;20327;-63
2022/04/20 03:49:40;;;;;;;13.88;2.92;;;;;;;6.82;78.19;100772.47;2056839;28;21045;-63
2022/04/20 03:50:45;;;;;;;8.52;3.10;;;;;;;6.83;78.25;100782.09;2072087;28;20289;-63
2022/04/20 03:51:47;;;;;;;7.32;2.55;;;;;;;6.83;78.27;100782.88;2064233;28;20285;-63
2022/04/20 03:52:54;;;;;;;8.38;2.63;;;;;;;6.84;77.92;100789.03;2049582;28;20295;-63
2022/04/20 03:53:57;;;;;;;5.45;2.35;;;;;;;6.87;77.98;100781.34;2065399;28;20294;-63
2022/04/20 03:55:01;;;;;;;6.57;2.63;;;;;;;6.91;78.36;100785.16;2060564;28;20308;-63
2022/04/20 03:56:05;;;;;;;7.07;2.30;;;;;;;6.90;78.18;100796.91;2058006;28;20305;-63
2022/04/20 03:57:13;;;;;;;7.93;2.80;;;;;;;6.96;78.03;100787.88;2072472;28;20288;-62
2022/04/20 03:58:19;;;;;;;11.30;2.83;;;;;;;6.96;77.64;100790.53;2081168;28;20655;-62
2022/04/20 03:59:21;;;;;;;7.25;2.63;;;;;;;6.92;78.02;100794.78;2062220;28;20340;-62
2022/04/20 04:00:26;;;;;;;15.43;3.10;;;;;;;6.97;77.88;100794.03;2048411;28;20299;-62
2022/04/20 04:01:31;;;;;;;8.52;2.72;;;;;;;7.00;77.88;100798.06;2057271;28;20626;-63
2022/04/20 04:02:35;;;;;;;9.23;2.72;;;;;;;6.99;77.75;100804.47;2064925;28;20626;-63
2022/04/20 04:03:47;;;;;;;6.88;2.47;;;;;;;6.97;77.80;100805.53;2056361;28;20653;-63
2022/04/20 04:04:55;;;;;;;6.40;2.42;;;;;;;7.01;77.51;100810.38;2051262;28;20302;-62
2022/04/20 04:06:06;;;;;;;8.10;3.20;;;;;;;7.05;77.57;100806.97;2057493;28;20642;-62
2022/04/20 04:07:09;;;;;;;9.73;3.05;;;;;;;7.04;77.71;100802.69;2061412;28;20062;-62
2022/04/20 04:08:12;;;;;;;8.77;2.75;;;;;;;7.08;77.39;100803.78;2048343;28;20294;-62
2022/04/20 04:09:18;;;;;;;9.98;3.00;;;;;;;7.13;77.56;100811.06;2053702;28;20282;-62
2022/04/20 04:10:20;;;;;;;7.53;2.75;;;;;;;7.19;77.32;100813.56;2072826;28;20291;-62
2022/04/20 04:11:23;;;;;;;7.75;3.05;;;;;;;7.12;77.31;100810.25;2079732;28;20288;-63
2022/04/20 04:12:25;;;;;;;6.68;3.10;;;;;;;7.07;77.02;100807.53;2080594;28;20296;-63
2022/04/20 04:13:30;;;;;;;6.32;2.88;;;;;;;7.11;77.02;100795.28;2079911;28;20285;-64
2022/04/20 04:14:37;;;;;;;11.02;3.30;;;;;;;7.16;77.09;100798.00;2065569;28;20727;-64
2022/04/20 04:15:39;;;;;;;7.53;3.30;;;;;;;7.21;77.03;100794.56;2064619;28;20292;-65
2022/04/20 04:16:47;;;;;;;9.40;3.10;;;;;;;7.17;77.39;100791.59;2072455;28;20281;-64
2022/04/20 04:17:54;;;;;;;7.15;3.10;;;;;;;7.15;77.07;100796.38;2072260;28;20296;-63
2022/04/20 04:19:00;;;;;;;11.13;3.08;;;;;;;7.19;77.38;100796.72;2064440;28;20293;-63
2022/04/20 04:20:13;;;;;;;10.25;3.28;;;;;;;7.22;77.03;100790.88;2065317;28;20300;-63
2022/04/20 04:21:17;;;;;;;6.82;2.90;;;;;;;7.22;76.89;100785.50;2068716;28;20289;-63
2022/04/20 04:22:19;;;;;;;6.68;2.92;;;;;;;7.15;76.85;100784.88;2057392;28;20301;-62
2022/04/20 04:23:45;;;;;;;7.68;3.03;;;;;;;7.10;77.40;100782.16;2072116;28;20293;-62
2022/04/20 04:25:13;;;;;;;11.05;3.25;;;;;;;7.16;76.93;100781.97;2072610;28;20296;-62
2022/04/20 04:26:18;;;;;;;6.80;2.80;;;;;;;7.20;77.40;100777.72;2064268;28;20701;-61
2022/04/20 04:27:24;;;;;;;8.18;2.80;;;;;;;7.16;77.01;100775.81;2049703;28;20043;-62
2022/04/20 04:28:26;;;;;;;7.53;2.92;;;;;;;7.10;77.14;100777.63;2064840;28;20282;-62
2022/04/20 04:29:33;;;;;;;6.60;2.63;;;;;;;7.03;77.25;100778.84;2063379;28;20732;-62
2022/04/20 04:30:35;;;;;;;8.77;2.92;;;;;;;6.99;77.35;100775.06;2057552;28;20678;-63
2022/04/20 04:31:42;;;;;;;7.32;2.88;;;;;;;7.02;77.66;100780.72;2065013;28;20285;-62
2022/04/20 04:32:47;;;;;;;8.15;3.03;;;;;;;7.00;77.25;100774.84;2064157;28;20669;-63
2022/04/20 04:33:55;;;;;;;9.32;3.08;;;;;;;7.05;77.93;100763.38;2049782;28;20290;-63
2022/04/20 04:35:02;;;;;;;9.13;3.63;;;;;;;7.03;77.40;100777.00;2049666;28;20294;-63
2022/04/20 04:36:08;;;;;;;8.98;2.85;;;;;;;7.09;77.55;100773.34;2049467;28;20289;-62
2022/04/20 04:37:15;;;;;;;7.90;2.70;;;;;;;6.97;77.40;100778.00;2063419;28;20300;-63
2022/04/20 04:38:28;;;;;;;8.02;2.50;;;;;;;6.92;77.10;100780.59;2072075;28;20909;-64
2022/04/20 04:39:32;;;;;;;12.40;3.38;;;;;;;6.98;77.34;100784.97;2071640;28;20042;-64
2022/04/20 04:40:38;;;;;;;6.70;2.60;;;;;;;7.03;77.75;100785.03;2063523;28;20297;-71
2022/04/20 04:41:42;;;;;;;7.22;2.70;;;;;;;7.07;77.39;100794.16;2063017;28;20312;-70
2022/04/20 04:42:47;;;;;;;5.72;2.80;;;;;;;7.09;77.39;100786.72;2062829;28;20290;-70
2022/04/20 04:43:51;;;;;;;5.25;2.67;;;;;;;7.11;77.38;100784.56;2064711;28;20297;-71
2022/04/20 04:48:36;;;;;;;7.40;2.85;;;;;;;7.11;77.09;100791.78;2078454;28;20292;-72
2022/04/20 04:49:13;;;;;;;5.57;2.40;;;;;;;7.27;77.00;100793.56;2080389;28;20294;-71
2022/04/20 04:50:21;;;;;;;7.00;2.70;;;;;;;7.35;76.90;100790.47;2078298;28;20390;-69
2022/04/20 04:51:28;;;;;;;4.93;2.50;;;;;;;7.39;76.62;100788.91;2066078;28;20308;-69
2022/04/20 04:52:32;;;;;;;8.40;2.50;;;;;;;7.37;76.25;100790.22;2055499;28;20301;-68
2022/04/20 04:53:43;;;;;;;4.32;2.65;;;;;;;7.37;76.00;100782.97;2056365;28;20341;-68
2022/04/20 04:54:51;;;;;;;7.63;2.85;;;;;;;7.30;76.25;100784.25;2049889;28;20287;-70
2022/04/20 04:55:54;;;;;;;6.35;2.58;;;;;;;7.31;76.10;100788.53;2063978;28;20296;-70
2022/04/20 04:56:57;;;;;;;6.30;2.75;;;;;;;7.31;76.31;100777.84;2062804;28;20290;-70
2022/04/20 04:58:04;;;;;;;9.02;2.90;;;;;;;7.34;75.95;100786.16;2055312;28;20301;-71
2022/04/20 04:59:10;;;;;;;7.30;2.63;;;;;;;7.27;76.15;100782.06;2063596;28;20289;-69
2022/04/20 05:00:16;;;;;;;5.57;2.83;;;;;;;7.26;76.15;100781.28;2055016;28;20301;-67
2022/04/20 05:01:41;;;;;;;5.00;2.40;;;;;;;7.31;76.29;100783.97;2050291;28;20293;-69
2022/04/20 05:02:51;;;;;;;5.65;2.80;;;;;;;7.36;75.99;100778.69;2057986;28;20282;-68
2022/04/20 05:03:55;;;;;;;5.75;2.67;;;;;;;7.33;76.32;100781.88;2055010;28;20639;-69
2022/04/20 05:05:01;;;;;;;8.82;2.80;;;;;;;7.26;76.14;100772.44;2056520;28;20295;-68
2022/04/20 05:06:04;;;;;;;12.45;2.90;;;;;;;7.28;76.08;100772.97;2070811;28;20281;-67
2022/04/20 05:07:31;;;;;;;6.68;2.55;;;;;;;7.33;76.44;100776.53;2070415;28;20300;-68
2022/04/20 05:08:37;;;;;;;5.22;2.53;;;;;;;7.32;75.81;100769.56;2071583;28;20307;-66
2022/04/20 05:09:45;;;;;;;13.23;3.33;;;;;;;7.34;75.89;100767.44;2055700;28;20666;-73
2022/04/20 05:10:52;;;;;;;11.82;2.70;;;;;;;7.34;75.68;100772.78;2056454;28;20639;-67
2022/04/20 05:11:59;;;;;;;7.20;2.50;;;;;;;7.28;75.69;100771.16;2056074;28;20301;-68
2022/04/20 05:13:06;;;;;;;6.93;2.85;;;;;;;7.15;76.12;100761.63;2064489;28;20293;-68
2022/04/20 05:14:13;;;;;;;6.80;2.53;;;;;;;7.18;76.13;100774.50;2072049;28;20303;-69
2022/04/20 05:15:19;;;;;;;8.15;2.88;;;;;;;7.14;76.19;100768.03;2064118;28;20289;-69
2022/04/20 05:16:22;;;;;;;5.45;2.75;;;;;;;7.14;76.10;100772.56;2057527;28;20294;-69
2022/04/20 05:17:26;;;;;;;8.35;2.50;;;;;;;7.16;75.78;100775.81;2072808;28;20451;-68
2022/04/20 05:18:29;;;;;;;3.85;2.40;;;;;;;7.13;76.22;100774.44;2071481;28;20309;-69
2022/04/20 05:19:34;;;;;;;9.85;3.05;;;;;;;7.10;75.69;100771.47;2072226;28;20419;-69
2022/04/20 05:20:48;;;;;;;6.15;2.78;;;;;;;7.05;75.65;100780.22;2063715;28;20286;-68
2022/04/20 05:21:53;;;;;;;7.05;2.63;;;;;;;7.10;75.88;100777.63;2051419;28;20298;-67
2022/04/20 05:23:06;;;;;;;6.50;2.60;;;;;;;7.06;76.01;100781.03;2065828;28;20296;-67
2022/04/20 05:24:09;;;;;;;6.70;2.60;;;;;;;7.05;76.34;100774.06;2064123;28;20054;-67
2022/04/20 05:25:15;;;;;;;6.93;2.75;;;;;;;7.02;76.06;100775.38;2056626;28;20375;-67
2022/04/20 05:26:23;;;;;;;6.30;2.40;;;;;;;7.07;75.92;100770.09;2056359;28;20294;-69